createdAt,value
2022-09-07T00:00:11.030Z,95647.00
2022-09-07T00:04:13.927Z,95645.00
2022-09-07T00:08:17.998Z,95653.00
2022-09-07T00:12:22.181Z,95636.00
2022-09-07T00:16:29.012Z,95641.00
2022-09-07T00:20:31.883Z,95641.00
2022-09-07T00:24:34.697Z,95642.00
2022-09-07T00:28:39.498Z,95634.00
2022-09-07T00:32:42.346Z,95630.00
2022-09-07T00:36:45.182Z,95637.00
2022-09-07T00:40:48.086Z,95630.00
2022-09-07T00:45:12.836Z,95635.00
2022-09-07T00:49:20.663Z,95634.00
2022-09-07T00:53:27.550Z,95638.00
2022-09-07T00:57:31.358Z,95643.00
2022-09-07T01:01:35.760Z,95645.00
2022-09-07T01:05:44.438Z,95644.00
2022-09-07T01:09:48.125Z,95641.00
2022-09-07T01:13:52.599Z,95640.00
2022-09-07T01:18:06.566Z,95642.00
2022-09-07T01:22:26.522Z,95636.00
2022-09-07T01:27:14.689Z,95631.00
2022-09-07T01:31:25.989Z,95635.00
2022-09-07T01:35:40.038Z,95629.00
2022-09-07T01:39:49.652Z,95621.00
2022-09-07T01:43:57.206Z,95625.00
2022-09-07T01:48:05.466Z,95637.00
2022-09-07T01:52:12.815Z,95647.00
2022-09-07T01:56:22.328Z,95634.00
2022-09-07T02:00:25.916Z,95643.00
2022-09-07T02:04:35.678Z,95646.00
2022-09-07T02:08:45.087Z,95638.00
2022-09-07T02:12:53.500Z,95642.00
2022-09-07T02:17:00.976Z,95636.00
2022-09-07T02:21:08.807Z,95623.00
2022-09-07T02:25:16.417Z,95615.00
2022-09-07T02:29:19.237Z,95605.00
2022-09-07T02:33:22.367Z,95617.00
2022-09-07T02:37:28.861Z,95614.00
2022-09-07T02:41:34.471Z,95609.00
2022-09-07T02:45:49.314Z,95607.00
2022-09-07T02:50:15.061Z,95612.00
2022-09-07T02:54:32.022Z,95606.00
2022-09-07T02:58:47.068Z,95595.00
2022-09-07T03:02:57.678Z,95609.00
2022-09-07T03:07:06.439Z,95620.00
2022-09-07T03:11:11.124Z,95616.00
2022-09-07T03:15:15.312Z,95614.00
2022-09-07T03:19:18.593Z,95614.00
2022-09-07T03:23:21.515Z,95615.00
2022-09-07T03:27:25.819Z,95613.00
2022-09-07T03:31:28.635Z,95611.00
2022-09-07T03:35:31.530Z,95611.00
2022-09-07T03:39:35.714Z,95603.00
2022-09-07T03:43:39.950Z,95605.00
2022-09-07T03:47:42.825Z,95619.00
2022-09-07T03:51:45.646Z,95618.00
2022-09-07T03:55:57.116Z,95629.00
2022-09-07T04:00:01.411Z,95619.00
2022-09-07T04:04:04.281Z,95619.00
2022-09-07T04:08:07.115Z,95617.00
2022-09-07T04:12:10.038Z,95618.00
2022-09-07T04:16:17.603Z,95615.00
2022-09-07T04:20:20.467Z,95624.00
2022-09-07T04:24:23.287Z,95620.00
2022-09-07T04:28:26.413Z,95632.00
2022-09-07T04:32:30.682Z,95620.00
2022-09-07T04:36:34.011Z,95623.00
2022-09-07T04:40:36.941Z,95620.00
2022-09-07T04:44:39.856Z,95628.00
2022-09-07T04:48:44.042Z,95629.00
2022-09-07T04:52:46.897Z,95623.00
2022-09-07T04:56:49.718Z,95626.00
2022-09-07T05:00:52.671Z,95630.00
2022-09-07T05:05:00.685Z,95636.00
2022-09-07T05:09:05.485Z,95627.00
2022-09-07T05:13:08.516Z,95638.00
2022-09-07T05:17:11.611Z,95644.00
2022-09-07T05:21:17.427Z,95646.00
2022-09-07T05:25:20.250Z,95652.00
2022-09-07T05:38:11.588Z,95659.00
2022-09-07T05:42:14.684Z,95658.00
2022-09-07T05:46:18.603Z,95666.00
2022-09-07T05:50:21.482Z,95673.00
2022-09-07T05:54:25.650Z,95675.00
2022-09-07T05:58:29.002Z,95691.00
2022-09-07T06:02:32.988Z,95691.00
2022-09-07T06:06:39.398Z,95699.00
2022-09-07T06:10:44.317Z,95706.00
2022-09-07T06:14:48.139Z,95715.00
2022-09-07T06:18:51.407Z,95706.00
2022-09-07T06:22:54.324Z,95706.00
2022-09-07T06:26:58.494Z,95718.00
2022-09-07T06:31:01.703Z,95715.00
2022-09-07T06:35:04.751Z,95717.00
2022-09-07T06:39:07.614Z,95727.00
2022-09-07T06:43:11.794Z,95722.00
2022-09-07T06:47:14.597Z,95726.00
2022-09-07T06:51:19.766Z,95719.00
2022-09-07T06:55:22.601Z,95720.00
2022-09-07T06:59:26.806Z,95719.00
2022-09-07T07:03:29.716Z,95717.00
2022-09-07T07:07:32.562Z,95711.00
2022-09-07T07:11:37.135Z,95721.00
2022-09-07T07:15:41.669Z,95722.00
2022-09-07T07:19:44.479Z,95731.00
2022-09-07T07:23:50.723Z,95730.00
2022-09-07T07:27:53.730Z,95744.00
2022-09-07T07:31:57.977Z,95738.00
2022-09-07T07:36:14.579Z,95745.00
2022-09-07T07:40:19.896Z,95745.00
2022-09-07T07:44:26.287Z,95744.00
2022-09-07T07:48:31.543Z,95749.00
2022-09-07T07:52:50.524Z,95752.00
2022-09-07T07:56:53.602Z,95753.00
2022-09-07T08:01:01.659Z,95746.00
2022-09-07T08:05:06.779Z,95737.00
2022-09-07T08:09:09.537Z,95735.00
2022-09-07T08:13:12.355Z,95738.00
2022-09-07T08:17:17.063Z,95729.00
2022-09-07T08:21:21.093Z,95734.00
2022-09-07T08:25:25.317Z,95735.00
2022-09-07T08:29:31.254Z,95740.00
2022-09-07T08:33:37.588Z,95725.00
2022-09-07T08:37:41.577Z,95729.00
2022-09-07T08:42:01.397Z,95728.00
2022-09-07T08:46:09.999Z,95721.00
2022-09-07T08:50:18.067Z,95718.00
2022-09-07T08:54:22.223Z,95695.00
2022-09-07T08:58:48.071Z,95676.00
2022-09-07T09:07:23.754Z,95684.00
2022-09-07T09:11:36.483Z,95706.00
2022-09-07T09:15:57.451Z,95697.00
2022-09-07T09:20:08.431Z,95675.00
2022-09-07T09:24:16.319Z,95679.00
2022-09-07T09:28:20.855Z,95677.00
2022-09-07T09:32:35.653Z,95660.00
2022-09-07T09:36:44.406Z,95696.00
2022-09-07T09:40:53.625Z,95718.00
2022-09-07T09:45:04.147Z,95733.00
2022-09-07T09:49:16.059Z,95743.00
2022-09-07T09:53:26.213Z,95738.00
2022-09-07T10:06:55.786Z,95731.00
2022-09-07T10:11:01.363Z,95726.00
2022-09-07T10:15:07.609Z,95728.00
2022-09-07T10:19:26.260Z,95723.00
2022-09-07T10:23:28.809Z,95727.00
2022-09-07T10:27:34.894Z,95737.00
2022-09-07T10:31:46.821Z,95736.00
2022-09-07T10:35:56.246Z,95725.00
2022-09-07T10:40:06.969Z,95724.00
2022-09-07T10:44:19.602Z,95719.00
2022-09-07T10:48:29.971Z,95704.00
2022-09-07T10:52:39.174Z,95687.00
2022-09-07T10:56:55.091Z,95691.00
2022-09-07T11:01:08.305Z,95658.00
2022-09-07T11:05:18.198Z,95668.00
2022-09-07T11:09:50.210Z,95649.00
2022-09-07T11:14:12.380Z,95655.00
2022-09-07T11:18:19.346Z,95626.00
2022-09-07T11:22:28.809Z,95616.00
2022-09-07T11:26:40.471Z,95619.00
2022-09-07T11:30:47.013Z,95607.00
2022-09-07T11:34:53.038Z,95601.00
2022-09-07T11:39:01.915Z,95588.00
2022-09-07T11:43:16.641Z,95585.00
2022-09-07T11:47:27.673Z,95594.00
2022-09-07T11:51:39.990Z,95578.00
2022-09-07T11:55:46.683Z,95594.00
2022-09-07T12:00:02.352Z,95598.00
2022-09-07T12:04:29.416Z,95585.00
2022-09-07T12:08:44.052Z,95584.00
2022-09-07T12:13:15.878Z,95579.00
2022-09-07T12:17:38.008Z,95570.00
2022-09-07T12:21:43.710Z,95581.00
2022-09-07T12:25:47.679Z,95587.00
2022-09-07T12:29:52.572Z,95579.00
2022-09-07T12:34:34.055Z,95586.00
2022-09-07T12:43:54.651Z,95574.00
2022-09-07T12:47:58.483Z,95580.00
2022-09-07T12:52:15.755Z,95566.00
2022-09-07T12:56:29.038Z,95572.00
2022-09-07T13:00:47.242Z,95575.00
2022-09-07T13:05:04.316Z,95585.00
2022-09-07T13:09:32.187Z,95569.00
2022-09-07T13:17:58.937Z,95575.00
2022-09-07T13:22:02.107Z,95570.00
2022-09-07T13:26:06.825Z,95552.00
2022-09-07T13:30:42.515Z,95551.00
2022-09-07T13:34:50.914Z,95544.00
2022-09-07T13:38:55.468Z,95571.00
2022-09-07T13:43:00.380Z,95558.00
2022-09-07T13:47:18.618Z,95540.00
2022-09-07T13:51:28.393Z,95531.00
2022-09-07T13:55:38.019Z,95551.00
2022-09-07T13:59:43.490Z,95544.00
2022-09-07T14:03:49.870Z,95528.00
2022-09-07T14:07:53.929Z,95525.00
2022-09-07T14:11:56.654Z,95538.00
2022-09-07T14:15:59.706Z,95536.00
2022-09-07T14:20:03.834Z,95519.00
2022-09-07T14:24:20.873Z,95531.00
2022-09-07T14:28:37.078Z,95536.00
2022-09-07T14:32:40.295Z,95539.00
2022-09-07T14:36:46.274Z,95537.00
2022-09-07T14:40:52.929Z,95525.00
2022-09-07T14:45:20.970Z,95528.00
2022-09-07T14:49:24.003Z,95523.00
2022-09-07T14:53:34.725Z,95520.00
2022-09-07T14:57:39.150Z,95504.00
2022-09-07T15:01:42.096Z,95509.00
2022-09-07T15:05:48.578Z,95497.00
2022-09-07T15:09:51.312Z,95501.00
2022-09-07T15:13:56.966Z,95510.00
2022-09-07T15:18:07.498Z,95506.00
2022-09-07T15:22:13.384Z,95495.00
2022-09-07T15:30:41.533Z,95481.00
2022-09-07T15:34:44.646Z,95480.00
2022-09-07T15:39:03.642Z,95472.00
2022-09-07T15:43:19.426Z,95475.00
2022-09-07T15:56:09.654Z,95463.00
2022-09-07T16:00:13.702Z,95462.00
2022-09-07T16:04:17.873Z,95445.00
2022-09-07T16:08:32.839Z,95439.00
2022-09-07T16:21:26.310Z,95433.00
2022-09-07T16:25:29.234Z,95428.00
2022-09-07T16:29:31.933Z,95417.00
2022-09-07T16:33:37.113Z,95414.00
2022-09-07T16:38:43.771Z,95417.00
2022-09-07T16:42:04.190Z,95414.00
2022-09-07T16:46:08.897Z,95406.00
2022-09-07T16:50:11.575Z,95409.00
2022-09-07T16:54:15.842Z,95410.00
2022-09-07T17:02:41.258Z,95400.00
2022-09-07T17:06:43.934Z,95398.00
2022-09-07T17:10:49.371Z,95395.00
2022-09-07T17:14:52.691Z,95398.00
2022-09-07T17:23:18.137Z,95395.00
2022-09-07T17:27:22.702Z,95393.00
2022-09-07T17:35:53.125Z,95396.00
2022-09-07T17:39:57.125Z,95386.00
2022-09-07T17:44:01.197Z,95394.00
2022-09-07T17:48:04.119Z,95390.00
2022-09-07T17:52:07.841Z,95388.00
2022-09-07T17:56:13.363Z,95394.00
2022-09-07T18:00:17.743Z,95392.00
2022-09-07T18:04:20.763Z,95395.00
2022-09-07T18:08:23.622Z,95401.00
2022-09-07T18:12:26.407Z,95390.00
2022-09-07T18:16:32.523Z,95387.00
2022-09-07T18:20:37.481Z,95381.00
2022-09-07T18:24:40.212Z,95376.00
2022-09-07T18:33:07.526Z,95382.00
2022-09-07T18:37:12.006Z,95384.00
2022-09-07T18:41:15.745Z,95387.00
2022-09-07T18:45:33.930Z,95385.00
2022-09-07T18:49:38.056Z,95381.00
2022-09-07T18:53:41.313Z,95366.00
2022-09-07T18:57:44.071Z,95367.00
2022-09-07T19:01:47.595Z,95372.00
2022-09-07T19:05:57.840Z,95383.00
2022-09-07T19:10:04.271Z,95384.00
2022-09-07T19:14:06.968Z,95403.00
2022-09-07T19:18:10.434Z,95400.00
2022-09-07T19:22:14.426Z,95389.00
2022-09-07T19:26:17.078Z,95395.00
2022-09-07T19:30:19.872Z,95388.00
2022-09-07T19:34:22.708Z,95390.00
2022-09-07T19:38:26.775Z,95378.00
2022-09-07T19:42:29.596Z,95377.00
2022-09-07T19:46:32.381Z,95388.00
2022-09-07T19:50:35.142Z,95375.00
2022-09-07T19:54:39.432Z,95380.00
2022-09-07T19:58:43.679Z,95382.00
2022-09-07T20:02:48.879Z,95380.00
2022-09-07T20:06:52.284Z,95360.00
2022-09-07T20:11:01.279Z,95353.00
2022-09-07T20:15:03.998Z,95343.00
2022-09-07T20:19:07.622Z,95348.00
2022-09-07T20:23:10.438Z,95334.00
2022-09-07T20:27:15.142Z,95333.00
2022-09-07T20:31:18.493Z,95325.00
2022-09-07T20:35:21.433Z,95324.00
2022-09-07T20:39:24.251Z,95316.00
2022-09-07T20:43:28.664Z,95310.00
2022-09-07T20:47:31.432Z,95302.00
2022-09-07T20:51:35.767Z,95293.00
2022-09-07T20:55:38.561Z,95291.00
2022-09-07T20:59:42.641Z,95294.00
2022-09-07T21:03:49.013Z,95286.00
2022-09-07T21:07:52.167Z,95274.00
2022-09-07T21:11:57.183Z,95257.00
2022-09-07T21:16:05.440Z,95254.00
2022-09-07T21:20:08.669Z,95251.00
2022-09-07T21:24:17.754Z,95243.00
2022-09-07T21:28:22.228Z,95232.00
2022-09-07T21:32:26.293Z,95217.00
2022-09-07T21:36:29.676Z,95214.00
2022-09-07T21:40:32.394Z,95223.00
2022-09-07T21:44:35.109Z,95212.00
2022-09-07T21:48:39.690Z,95205.00
2022-09-07T21:52:42.345Z,95221.00
2022-09-07T21:56:46.815Z,95238.00
2022-09-07T22:00:49.736Z,95232.00
2022-09-07T22:04:53.814Z,95269.00
2022-09-07T22:08:56.932Z,95306.00
2022-09-07T22:12:59.606Z,95320.00
2022-09-07T22:17:02.714Z,95293.00
2022-09-07T22:21:09.567Z,95311.00
2022-09-07T22:25:12.243Z,95293.00
2022-09-07T22:29:15.011Z,95301.00
2022-09-07T22:33:17.682Z,95298.00
2022-09-07T22:37:21.730Z,95294.00
2022-09-07T22:41:26.402Z,95298.00
2022-09-07T22:45:29.070Z,95304.00
2022-09-07T22:49:31.747Z,95301.00
2022-09-07T22:53:38.522Z,95300.00
2022-09-07T22:57:41.262Z,95295.00
2022-09-07T23:01:44.089Z,95286.00
2022-09-07T23:05:47.345Z,95297.00
2022-09-07T23:09:51.394Z,95313.00
2022-09-07T23:13:55.099Z,95316.00
2022-09-07T23:17:57.877Z,95293.00
2022-09-07T23:22:00.659Z,95238.00
2022-09-07T23:26:05.551Z,95216.00
2022-09-07T23:30:09.486Z,95231.00
2022-09-07T23:34:12.350Z,95252.00
2022-09-07T23:38:15.022Z,95255.00
2022-09-07T23:42:19.169Z,95265.00
2022-09-07T23:46:22.269Z,95282.00
2022-09-07T23:50:25.034Z,95287.00
2022-09-07T23:54:27.704Z,95285.00
2022-09-07T23:58:31.747Z,95290.00
